sensor_id;sensor_type;location;lat;lon;timestamp;temperature;humidity
22299;DHT22;11317;51.072;17.036;2022-09-14T00:01:33;15.40;99.90
22299;DHT22;11317;51.072;17.036;2022-09-14T00:04:05;15.20;99.90
22299;DHT22;11317;51.072;17.036;2022-09-14T00:06:31;15.20;99.90
22299;DHT22;11317;51.072;17.036;2022-09-14T00:08:59;15.20;99.90
22299;DHT22;11317;51.072;17.036;2022-09-14T00:11:29;15.20;99.90
22299;DHT22;11317;51.072;17.036;2022-09-14T00:13:56;15.30;99.90
22299;DHT22;11317;51.072;17.036;2022-09-14T00:16:25;15.20;99.90
22299;DHT22;11317;51.072;17.036;2022-09-14T00:18:52;15.10;99.90
22299;DHT22;11317;51.072;17.036;2022-09-14T00:21:19;15.10;99.90
22299;DHT22;11317;51.072;17.036;2022-09-14T00:23:45;15.10;99.90
22299;DHT22;11317;51.072;17.036;2022-09-14T00:26:13;14.00;99.90
22299;DHT22;11317;51.072;17.036;2022-09-14T00:28:42;15.00;99.90
22299;DHT22;11317;51.072;17.036;2022-09-14T00:33:35;15.10;99.90
22299;DHT22;11317;51.072;17.036;2022-09-14T00:36:10;15.20;99.90
22299;DHT22;11317;51.072;17.036;2022-09-14T00:38:36;15.20;99.90
22299;DHT22;11317;51.072;17.036;2022-09-14T00:41:03;15.30;99.90
22299;DHT22;11317;51.072;17.036;2022-09-14T00:43:29;15.40;99.90
22299;DHT22;11317;51.072;17.036;2022-09-14T00:48:23;14.60;99.90
22299;DHT22;11317;51.072;17.036;2022-09-14T00:50:49;15.20;99.90
22299;DHT22;11317;51.072;17.036;2022-09-14T00:53:16;14.50;99.90
22299;DHT22;11317;51.072;17.036;2022-09-14T01:08:24;15.40;99.90
22299;DHT22;11317;51.072;17.036;2022-09-14T01:11:23;15.40;99.90
22299;DHT22;11317;51.072;17.036;2022-09-14T01:14:09;15.00;99.90
22299;DHT22;11317;51.072;17.036;2022-09-14T01:19:42;15.50;99.90
22299;DHT22;11317;51.072;17.036;2022-09-14T01:22:16;15.30;99.90
22299;DHT22;11317;51.072;17.036;2022-09-14T01:24:53;15.40;99.90
22299;DHT22;11317;51.072;17.036;2022-09-14T01:27:45;15.10;99.90
22299;DHT22;11317;51.072;17.036;2022-09-14T01:30:18;15.30;99.90
22299;DHT22;11317;51.072;17.036;2022-09-14T01:32:49;15.30;99.90
22299;DHT22;11317;51.072;17.036;2022-09-14T01:35:26;15.30;99.90
22299;DHT22;11317;51.072;17.036;2022-09-14T01:38:07;14.70;99.90
22299;DHT22;11317;51.072;17.036;2022-09-14T01:40:46;15.40;99.90
22299;DHT22;11317;51.072;17.036;2022-09-14T01:43:38;15.50;99.90
22299;DHT22;11317;51.072;17.036;2022-09-14T01:46:19;15.40;99.90
22299;DHT22;11317;51.072;17.036;2022-09-14T01:49:10;15.70;99.90
22299;DHT22;11317;51.072;17.036;2022-09-14T01:51:51;15.70;99.90
22299;DHT22;11317;51.072;17.036;2022-09-14T01:57:03;15.70;99.90
22299;DHT22;11317;51.072;17.036;2022-09-14T01:59:36;15.80;99.90
22299;DHT22;11317;51.072;17.036;2022-09-14T02:05:36;15.70;99.90
22299;DHT22;11317;51.072;17.036;2022-09-14T02:08:03;15.70;99.90
22299;DHT22;11317;51.072;17.036;2022-09-14T02:10:29;15.80;99.90
22299;DHT22;11317;51.072;17.036;2022-09-14T02:12:55;15.80;99.90
22299;DHT22;11317;51.072;17.036;2022-09-14T02:15:21;15.50;99.90
22299;DHT22;11317;51.072;17.036;2022-09-14T02:17:48;15.70;99.90
22299;DHT22;11317;51.072;17.036;2022-09-14T02:20:40;15.70;99.90
22299;DHT22;11317;51.072;17.036;2022-09-14T02:23:07;15.70;99.90
22299;DHT22;11317;51.072;17.036;2022-09-14T02:25:33;15.70;99.90
22299;DHT22;11317;51.072;17.036;2022-09-14T02:30:27;15.90;99.90
22299;DHT22;11317;51.072;17.036;2022-09-14T02:33:13;16.20;99.90
22299;DHT22;11317;51.072;17.036;2022-09-14T02:35:47;15.80;99.90
22299;DHT22;11317;51.072;17.036;2022-09-14T02:41:03;15.90;99.90
22299;DHT22;11317;51.072;17.036;2022-09-14T02:46:53;16.20;99.90
22299;DHT22;11317;51.072;17.036;2022-09-14T02:52:39;15.90;99.90
22299;DHT22;11317;51.072;17.036;2022-09-14T02:55:11;15.70;99.90
22299;DHT22;11317;51.072;17.036;2022-09-14T03:00:23;15.80;99.90
22299;DHT22;11317;51.072;17.036;2022-09-14T03:02:49;16.30;99.90
22299;DHT22;11317;51.072;17.036;2022-09-14T03:10:07;15.80;99.90
22299;DHT22;11317;51.072;17.036;2022-09-14T03:19:51;16.10;99.90
22299;DHT22;11317;51.072;17.036;2022-09-14T03:27:08;16.10;99.90
22299;DHT22;11317;51.072;17.036;2022-09-14T03:34:26;15.50;99.90
22299;DHT22;11317;51.072;17.036;2022-09-14T03:39:17;15.70;99.90
22299;DHT22;11317;51.072;17.036;2022-09-14T03:41:43;16.00;99.90
22299;DHT22;11317;51.072;17.036;2022-09-14T03:44:09;15.80;99.90
22299;DHT22;11317;51.072;17.036;2022-09-14T03:46:34;16.10;99.90
22299;DHT22;11317;51.072;17.036;2022-09-14T03:56:20;15.60;99.90
22299;DHT22;11317;51.072;17.036;2022-09-14T03:58:47;15.50;99.90
22299;DHT22;11317;51.072;17.036;2022-09-14T04:01:16;15.50;99.90
22299;DHT22;11317;51.072;17.036;2022-09-14T04:03:43;15.20;99.90
22299;DHT22;11317;51.072;17.036;2022-09-14T04:06:09;15.50;99.90
22299;DHT22;11317;51.072;17.036;2022-09-14T04:08:38;15.50;99.90
22299;DHT22;11317;51.072;17.036;2022-09-14T04:11:09;15.70;99.90
22299;DHT22;11317;51.072;17.036;2022-09-14T04:13:35;15.40;99.90
22299;DHT22;11317;51.072;17.036;2022-09-14T04:18:28;14.90;99.90
22299;DHT22;11317;51.072;17.036;2022-09-14T04:20:59;15.10;99.90
22299;DHT22;11317;51.072;17.036;2022-09-14T04:23:25;15.30;99.90
22299;DHT22;11317;51.072;17.036;2022-09-14T04:25:51;15.30;99.90
22299;DHT22;11317;51.072;17.036;2022-09-14T04:28:17;15.30;99.90
22299;DHT22;11317;51.072;17.036;2022-09-14T04:33:09;15.50;99.90
22299;DHT22;11317;51.072;17.036;2022-09-14T04:45:20;15.30;99.90
22299;DHT22;11317;51.072;17.036;2022-09-14T04:47:45;15.00;99.90
22299;DHT22;11317;51.072;17.036;2022-09-14T04:57:29;15.00;99.90
22299;DHT22;11317;51.072;17.036;2022-09-14T05:07:17;15.10;99.90
22299;DHT22;11317;51.072;17.036;2022-09-14T05:19:27;15.20;99.90
22299;DHT22;11317;51.072;17.036;2022-09-14T05:21:53;15.70;99.90
22299;DHT22;11317;51.072;17.036;2022-09-14T05:26:45;15.60;99.90
22299;DHT22;11317;51.072;17.036;2022-09-14T05:29:13;15.40;99.90
22299;DHT22;11317;51.072;17.036;2022-09-14T05:31:39;15.50;99.90
22299;DHT22;11317;51.072;17.036;2022-09-14T05:46:17;16.10;99.90
22299;DHT22;11317;51.072;17.036;2022-09-14T05:48:46;16.30;99.90
22299;DHT22;11317;51.072;17.036;2022-09-14T05:51:15;16.20;99.90
22299;DHT22;11317;51.072;17.036;2022-09-14T05:53:42;16.10;99.90
22299;DHT22;11317;51.072;17.036;2022-09-14T05:56:12;16.10;99.90
22299;DHT22;11317;51.072;17.036;2022-09-14T05:58:40;16.30;99.90
22299;DHT22;11317;51.072;17.036;2022-09-14T06:01:26;16.30;99.90
22299;DHT22;11317;51.072;17.036;2022-09-14T06:03:54;16.60;99.90
22299;DHT22;11317;51.072;17.036;2022-09-14T06:06:21;16.50;99.90
22299;DHT22;11317;51.072;17.036;2022-09-14T06:08:48;16.20;99.90
22299;DHT22;11317;51.072;17.036;2022-09-14T06:11:19;16.40;99.90
22299;DHT22;11317;51.072;17.036;2022-09-14T06:13:46;16.60;99.90
22299;DHT22;11317;51.072;17.036;2022-09-14T06:16:14;16.80;99.90
22299;DHT22;11317;51.072;17.036;2022-09-14T06:18:41;16.90;99.90
22299;DHT22;11317;51.072;17.036;2022-09-14T06:21:08;17.20;99.90
22299;DHT22;11317;51.072;17.036;2022-09-14T06:23:34;16.90;99.90
22299;DHT22;11317;51.072;17.036;2022-09-14T06:26:02;17.30;99.90
22299;DHT22;11317;51.072;17.036;2022-09-14T06:28:28;17.10;99.90
22299;DHT22;11317;51.072;17.036;2022-09-14T06:30:55;17.10;99.90
22299;DHT22;11317;51.072;17.036;2022-09-14T06:33:21;17.30;99.90
22299;DHT22;11317;51.072;17.036;2022-09-14T06:36:14;17.50;99.90
22299;DHT22;11317;51.072;17.036;2022-09-14T06:38:41;17.50;99.90
22299;DHT22;11317;51.072;17.036;2022-09-14T06:41:08;18.10;96.70
22299;DHT22;11317;51.072;17.036;2022-09-14T06:43:36;15.80;93.10
22299;DHT22;11317;51.072;17.036;2022-09-14T06:48:38;18.40;66.60
22299;DHT22;11317;51.072;17.036;2022-09-14T06:51:12;18.20;56.80
22299;DHT22;11317;51.072;17.036;2022-09-14T06:58:32;18.40;50.20
22299;DHT22;11317;51.072;17.036;2022-09-14T07:01:03;18.60;59.40
22299;DHT22;11317;51.072;17.036;2022-09-14T07:03:30;18.20;46.60
22299;DHT22;11317;51.072;17.036;2022-09-14T07:06:08;18.30;55.60
22299;DHT22;11317;51.072;17.036;2022-09-14T07:08:36;18.40;48.00
22299;DHT22;11317;51.072;17.036;2022-09-14T07:11:02;18.10;56.60
22299;DHT22;11317;51.072;17.036;2022-09-14T07:13:28;18.00;60.50
22299;DHT22;11317;51.072;17.036;2022-09-14T07:18:21;18.70;55.80
22299;DHT22;11317;51.072;17.036;2022-09-14T07:20:48;18.50;49.50
22299;DHT22;11317;51.072;17.036;2022-09-14T07:23:14;18.70;27.50
22299;DHT22;11317;51.072;17.036;2022-09-14T07:25:40;18.70;31.50
22299;DHT22;11317;51.072;17.036;2022-09-14T07:28:06;17.20;26.40
22299;DHT22;11317;51.072;17.036;2022-09-14T07:30:37;19.00;11.50
22299;DHT22;11317;51.072;17.036;2022-09-14T07:33:04;19.00;1.00
22299;DHT22;11317;51.072;17.036;2022-09-14T07:35:31;19.10;1.00
22299;DHT22;11317;51.072;17.036;2022-09-14T07:37:56;19.30;1.00
22299;DHT22;11317;51.072;17.036;2022-09-14T07:40:22;19.20;1.00
22299;DHT22;11317;51.072;17.036;2022-09-14T07:42:52;19.20;1.00
22299;DHT22;11317;51.072;17.036;2022-09-14T07:45:18;19.30;1.00
22299;DHT22;11317;51.072;17.036;2022-09-14T07:47:44;19.40;1.00
22299;DHT22;11317;51.072;17.036;2022-09-14T07:50:09;19.50;1.00
22299;DHT22;11317;51.072;17.036;2022-09-14T07:52:35;19.70;1.00
22299;DHT22;11317;51.072;17.036;2022-09-14T07:55:01;19.90;1.00
22299;DHT22;11317;51.072;17.036;2022-09-14T07:57:27;20.00;1.00
22299;DHT22;11317;51.072;17.036;2022-09-14T07:59:52;20.10;1.00
22299;DHT22;11317;51.072;17.036;2022-09-14T08:02:18;20.30;1.00
22299;DHT22;11317;51.072;17.036;2022-09-14T08:04:46;20.50;1.00
22299;DHT22;11317;51.072;17.036;2022-09-14T08:07:13;20.60;1.00
22299;DHT22;11317;51.072;17.036;2022-09-14T08:09:39;20.60;1.00
22299;DHT22;11317;51.072;17.036;2022-09-14T08:12:04;20.90;1.00
22299;DHT22;11317;51.072;17.036;2022-09-14T08:16:56;20.90;1.00
22299;DHT22;11317;51.072;17.036;2022-09-14T08:24:16;21.10;1.00
22299;DHT22;11317;51.072;17.036;2022-09-14T08:29:08;21.40;1.00
22299;DHT22;11317;51.072;17.036;2022-09-14T08:31:37;21.20;1.00
22299;DHT22;11317;51.072;17.036;2022-09-14T08:34:04;21.10;99.90
22299;DHT22;11317;51.072;17.036;2022-09-14T08:36:33;21.20;99.90
22299;DHT22;11317;51.072;17.036;2022-09-14T08:38:59;21.20;99.90
22299;DHT22;11317;51.072;17.036;2022-09-14T08:44:19;21.10;99.90
22299;DHT22;11317;51.072;17.036;2022-09-14T08:46:52;20.80;99.90
22299;DHT22;11317;51.072;17.036;2022-09-14T08:52:23;20.70;1.00
22299;DHT22;11317;51.072;17.036;2022-09-14T08:54:53;20.30;1.00
22299;DHT22;11317;51.072;17.036;2022-09-14T08:57:42;20.80;1.00
22299;DHT22;11317;51.072;17.036;2022-09-14T09:00:14;20.60;1.00
22299;DHT22;11317;51.072;17.036;2022-09-14T09:08:18;21.00;1.00
22299;DHT22;11317;51.072;17.036;2022-09-14T09:10:46;20.90;99.90
22299;DHT22;11317;51.072;17.036;2022-09-14T09:13:17;21.10;1.00
22299;DHT22;11317;51.072;17.036;2022-09-14T09:15:50;20.70;1.00
22299;DHT22;11317;51.072;17.036;2022-09-14T09:18:27;21.00;1.00
22299;DHT22;11317;51.072;17.036;2022-09-14T09:21:21;21.00;1.00
22299;DHT22;11317;51.072;17.036;2022-09-14T09:28:52;21.60;1.00
22299;DHT22;11317;51.072;17.036;2022-09-14T09:31:24;21.60;99.90
22299;DHT22;11317;51.072;17.036;2022-09-14T09:33:51;21.80;33.90
22299;DHT22;11317;51.072;17.036;2022-09-14T09:36:17;21.90;1.00
22299;DHT22;11317;51.072;17.036;2022-09-14T09:38:44;22.10;1.00
22299;DHT22;11317;51.072;17.036;2022-09-14T09:41:22;22.00;1.00
22299;DHT22;11317;51.072;17.036;2022-09-14T09:46:34;22.20;99.90
22299;DHT22;11317;51.072;17.036;2022-09-14T09:49:03;22.30;99.90
22299;DHT22;11317;51.072;17.036;2022-09-14T09:51:38;22.50;1.00
22299;DHT22;11317;51.072;17.036;2022-09-14T09:56:32;22.70;1.00
22299;DHT22;11317;51.072;17.036;2022-09-14T10:01:33;23.10;99.90
22299;DHT22;11317;51.072;17.036;2022-09-14T10:04:20;23.10;1.00
22299;DHT22;11317;51.072;17.036;2022-09-14T10:06:48;22.90;1.00
22299;DHT22;11317;51.072;17.036;2022-09-14T10:09:17;22.90;1.00
22299;DHT22;11317;51.072;17.036;2022-09-14T10:11:45;22.80;6.90
22299;DHT22;11317;51.072;17.036;2022-09-14T10:14:27;23.20;1.00
22299;DHT22;11317;51.072;17.036;2022-09-14T10:17:21;23.30;1.00
22299;DHT22;11317;51.072;17.036;2022-09-14T10:19:52;22.70;1.00
22299;DHT22;11317;51.072;17.036;2022-09-14T10:30:39;22.20;1.00
22299;DHT22;11317;51.072;17.036;2022-09-14T10:33:12;22.10;1.00
22299;DHT22;11317;51.072;17.036;2022-09-14T10:44:17;22.20;1.00
22299;DHT22;11317;51.072;17.036;2022-09-14T10:47:09;22.40;99.90
22299;DHT22;11317;51.072;17.036;2022-09-14T10:55:30;22.60;1.00
22299;DHT22;11317;51.072;17.036;2022-09-14T11:01:21;22.50;1.00
22299;DHT22;11317;51.072;17.036;2022-09-14T11:20:32;22.40;1.00
22299;DHT22;11317;51.072;17.036;2022-09-14T11:26:40;22.10;1.00
22299;DHT22;11317;51.072;17.036;2022-09-14T11:32:14;21.90;99.90
22299;DHT22;11317;51.072;17.036;2022-09-14T11:34:45;22.20;99.90
22299;DHT22;11317;51.072;17.036;2022-09-14T11:37:16;21.50;99.90
22299;DHT22;11317;51.072;17.036;2022-09-14T11:40:02;21.40;99.90
22299;DHT22;11317;51.072;17.036;2022-09-14T11:42:34;21.30;1.00
22299;DHT22;11317;51.072;17.036;2022-09-14T11:45:14;21.40;1.00
22299;DHT22;11317;51.072;17.036;2022-09-14T11:47:51;21.50;99.90
22299;DHT22;11317;51.072;17.036;2022-09-14T11:50:25;21.50;99.90
22299;DHT22;11317;51.072;17.036;2022-09-14T11:53:02;21.70;99.90
22299;DHT22;11317;51.072;17.036;2022-09-14T11:55:33;21.80;99.90
22299;DHT22;11317;51.072;17.036;2022-09-14T11:58:02;21.70;1.00
22299;DHT22;11317;51.072;17.036;2022-09-14T12:00:58;21.90;1.00
22299;DHT22;11317;51.072;17.036;2022-09-14T12:11:54;22.20;1.00
22299;DHT22;11317;51.072;17.036;2022-09-14T12:17:21;22.10;17.20
22299;DHT22;11317;51.072;17.036;2022-09-14T12:19:54;22.20;1.00
22299;DHT22;11317;51.072;17.036;2022-09-14T12:22:38;22.00;1.00
22299;DHT22;11317;51.072;17.036;2022-09-14T12:25:19;22.10;1.00
22299;DHT22;11317;51.072;17.036;2022-09-14T12:27:47;22.20;1.00
22299;DHT22;11317;51.072;17.036;2022-09-14T12:33:01;22.20;1.00
22299;DHT22;11317;51.072;17.036;2022-09-14T12:37:59;22.20;1.00
22299;DHT22;11317;51.072;17.036;2022-09-14T12:53:40;21.90;1.00
22299;DHT22;11317;51.072;17.036;2022-09-14T12:56:17;22.00;2.40
22299;DHT22;11317;51.072;17.036;2022-09-14T12:58:59;22.10;90.00
22299;DHT22;11317;51.072;17.036;2022-09-14T13:03:55;21.80;28.10
22299;DHT22;11317;51.072;17.036;2022-09-14T13:06:22;21.60;99.90
22299;DHT22;11317;51.072;17.036;2022-09-14T13:08:53;21.70;1.00
22299;DHT22;11317;51.072;17.036;2022-09-14T13:11:32;21.70;1.00
22299;DHT22;11317;51.072;17.036;2022-09-14T13:13:59;21.80;1.00
22299;DHT22;11317;51.072;17.036;2022-09-14T13:16:46;22.00;1.00
22299;DHT22;11317;51.072;17.036;2022-09-14T13:21:52;21.40;1.00
22299;DHT22;11317;51.072;17.036;2022-09-14T13:26:45;21.50;1.00
22299;DHT22;11317;51.072;17.036;2022-09-14T13:29:13;21.30;1.00
22299;DHT22;11317;51.072;17.036;2022-09-14T13:31:43;21.70;99.90
22299;DHT22;11317;51.072;17.036;2022-09-14T13:34:19;21.10;1.00
22299;DHT22;11317;51.072;17.036;2022-09-14T13:36:45;21.20;99.90
22299;DHT22;11317;51.072;17.036;2022-09-14T13:39:34;20.80;99.90
22299;DHT22;11317;51.072;17.036;2022-09-14T13:42:01;22.10;1.00
22299;DHT22;11317;51.072;17.036;2022-09-14T13:44:33;21.40;99.90
22299;DHT22;11317;51.072;17.036;2022-09-14T13:47:02;21.20;1.00
22299;DHT22;11317;51.072;17.036;2022-09-14T13:49:28;21.50;1.00
22299;DHT22;11317;51.072;17.036;2022-09-14T14:00:31;21.30;1.00
22299;DHT22;11317;51.072;17.036;2022-09-14T14:03:02;21.10;1.00
22299;DHT22;11317;51.072;17.036;2022-09-14T14:05:33;21.40;99.90
22299;DHT22;11317;51.072;17.036;2022-09-14T14:08:25;21.30;99.90
22299;DHT22;11317;51.072;17.036;2022-09-14T14:10:52;20.70;99.90
22299;DHT22;11317;51.072;17.036;2022-09-14T14:13:31;21.40;1.00
22299;DHT22;11317;51.072;17.036;2022-09-14T14:16:19;21.50;1.00
22299;DHT22;11317;51.072;17.036;2022-09-14T14:18:57;21.40;99.90
22299;DHT22;11317;51.072;17.036;2022-09-14T14:24:21;21.40;1.00
22299;DHT22;11317;51.072;17.036;2022-09-14T14:26:50;21.70;99.90
22299;DHT22;11317;51.072;17.036;2022-09-14T14:29:16;21.30;1.00
22299;DHT22;11317;51.072;17.036;2022-09-14T14:31:43;22.90;99.90
22299;DHT22;11317;51.072;17.036;2022-09-14T14:34:20;21.20;1.00
22299;DHT22;11317;51.072;17.036;2022-09-14T14:36:46;20.80;1.00
22299;DHT22;11317;51.072;17.036;2022-09-14T14:39:15;21.60;99.90
22299;DHT22;11317;51.072;17.036;2022-09-14T14:44:18;20.90;1.00
22299;DHT22;11317;51.072;17.036;2022-09-14T14:46:44;20.70;99.90
22299;DHT22;11317;51.072;17.036;2022-09-14T14:49:15;20.80;1.00
22299;DHT22;11317;51.072;17.036;2022-09-14T14:54:08;21.10;1.00
22299;DHT22;11317;51.072;17.036;2022-09-14T14:59:00;21.00;99.90
22299;DHT22;11317;51.072;17.036;2022-09-14T15:03:52;21.70;99.90
22299;DHT22;11317;51.072;17.036;2022-09-14T15:06:21;20.60;99.90
22299;DHT22;11317;51.072;17.036;2022-09-14T15:08:54;20.90;99.90
22299;DHT22;11317;51.072;17.036;2022-09-14T15:11:21;20.80;99.90
22299;DHT22;11317;51.072;17.036;2022-09-14T15:13:47;20.80;1.00
22299;DHT22;11317;51.072;17.036;2022-09-14T15:16:13;20.80;1.00
22299;DHT22;11317;51.072;17.036;2022-09-14T15:18:39;20.70;1.00
22299;DHT22;11317;51.072;17.036;2022-09-14T15:21:06;20.70;1.00
22299;DHT22;11317;51.072;17.036;2022-09-14T15:23:32;20.60;1.00
22299;DHT22;11317;51.072;17.036;2022-09-14T15:25:58;20.60;99.90
22299;DHT22;11317;51.072;17.036;2022-09-14T15:28:23;20.60;1.00
22299;DHT22;11317;51.072;17.036;2022-09-14T15:30:49;20.60;1.00
22299;DHT22;11317;51.072;17.036;2022-09-14T15:33:16;20.60;99.90
22299;DHT22;11317;51.072;17.036;2022-09-14T15:35:42;20.60;1.00
22299;DHT22;11317;51.072;17.036;2022-09-14T15:38:08;20.60;1.00
22299;DHT22;11317;51.072;17.036;2022-09-14T15:40:35;20.50;1.00
22299;DHT22;11317;51.072;17.036;2022-09-14T15:43:00;20.50;1.00
22299;DHT22;11317;51.072;17.036;2022-09-14T15:45:26;20.30;99.90
22299;DHT22;11317;51.072;17.036;2022-09-14T15:47:52;20.30;1.00
22299;DHT22;11317;51.072;17.036;2022-09-14T15:50:17;20.30;99.90
22299;DHT22;11317;51.072;17.036;2022-09-14T15:52:43;20.20;99.90
22299;DHT22;11317;51.072;17.036;2022-09-14T15:55:10;20.20;1.00
22299;DHT22;11317;51.072;17.036;2022-09-14T15:57:36;20.10;1.00
22299;DHT22;11317;51.072;17.036;2022-09-14T16:00:05;20.10;99.90
22299;DHT22;11317;51.072;17.036;2022-09-14T16:02:31;20.10;1.00
22299;DHT22;11317;51.072;17.036;2022-09-14T16:04:57;20.10;1.00
22299;DHT22;11317;51.072;17.036;2022-09-14T16:07:23;20.10;1.00
22299;DHT22;11317;51.072;17.036;2022-09-14T16:09:48;20.00;1.00
22299;DHT22;11317;51.072;17.036;2022-09-14T16:12:14;20.00;1.00
22299;DHT22;11317;51.072;17.036;2022-09-14T16:14:40;19.90;1.00
22299;DHT22;11317;51.072;17.036;2022-09-14T16:17:06;19.80;1.00
22299;DHT22;11317;51.072;17.036;2022-09-14T16:19:33;19.80;1.00
22299;DHT22;11317;51.072;17.036;2022-09-14T16:22:01;19.70;1.00
22299;DHT22;11317;51.072;17.036;2022-09-14T16:24:28;19.60;1.00
22299;DHT22;11317;51.072;17.036;2022-09-14T16:26:54;19.60;1.00
22299;DHT22;11317;51.072;17.036;2022-09-14T16:29:22;19.50;1.00
22299;DHT22;11317;51.072;17.036;2022-09-14T16:31:48;19.50;1.00
22299;DHT22;11317;51.072;17.036;2022-09-14T16:34:19;19.40;1.00
22299;DHT22;11317;51.072;17.036;2022-09-14T16:36:46;19.30;8.00
22299;DHT22;11317;51.072;17.036;2022-09-14T16:39:18;19.30;41.30
22299;DHT22;11317;51.072;17.036;2022-09-14T16:41:45;19.20;57.50
22299;DHT22;11317;51.072;17.036;2022-09-14T16:44:19;19.10;89.80
22299;DHT22;11317;51.072;17.036;2022-09-14T16:46:45;19.10;99.90
22299;DHT22;11317;51.072;17.036;2022-09-14T16:49:13;19.00;99.90
22299;DHT22;11317;51.072;17.036;2022-09-14T16:51:39;19.00;99.90
22299;DHT22;11317;51.072;17.036;2022-09-14T16:54:05;19.00;99.90
22299;DHT22;11317;51.072;17.036;2022-09-14T16:56:35;19.00;99.90
22299;DHT22;11317;51.072;17.036;2022-09-14T16:59:02;18.90;99.90
22299;DHT22;11317;51.072;17.036;2022-09-14T17:01:33;18.90;99.90
22299;DHT22;11317;51.072;17.036;2022-09-14T17:04:02;18.90;99.90
22299;DHT22;11317;51.072;17.036;2022-09-14T17:06:30;18.80;99.90
22299;DHT22;11317;51.072;17.036;2022-09-14T17:08:59;18.80;99.90
22299;DHT22;11317;51.072;17.036;2022-09-14T17:11:27;18.70;99.90
22299;DHT22;11317;51.072;17.036;2022-09-14T17:13:53;18.70;99.90
22299;DHT22;11317;51.072;17.036;2022-09-14T17:16:20;18.60;99.90
22299;DHT22;11317;51.072;17.036;2022-09-14T17:18:48;18.60;99.90
22299;DHT22;11317;51.072;17.036;2022-09-14T17:21:20;18.60;99.90
22299;DHT22;11317;51.072;17.036;2022-09-14T17:23:46;18.60;99.90
22299;DHT22;11317;51.072;17.036;2022-09-14T17:26:14;18.60;99.90
22299;DHT22;11317;51.072;17.036;2022-09-14T17:28:42;18.60;99.90
22299;DHT22;11317;51.072;17.036;2022-09-14T17:31:11;18.50;99.90
22299;DHT22;11317;51.072;17.036;2022-09-14T17:33:38;18.50;99.90
22299;DHT22;11317;51.072;17.036;2022-09-14T17:36:05;18.40;99.90
22299;DHT22;11317;51.072;17.036;2022-09-14T17:38:36;18.50;99.90
22299;DHT22;11317;51.072;17.036;2022-09-14T17:41:07;18.50;99.90
22299;DHT22;11317;51.072;17.036;2022-09-14T17:43:35;18.40;99.90
22299;DHT22;11317;51.072;17.036;2022-09-14T17:46:03;18.40;99.90
22299;DHT22;11317;51.072;17.036;2022-09-14T17:48:34;18.40;99.90
22299;DHT22;11317;51.072;17.036;2022-09-14T17:51:08;18.40;99.90
22299;DHT22;11317;51.072;17.036;2022-09-14T17:53:38;18.40;99.90
22299;DHT22;11317;51.072;17.036;2022-09-14T17:56:06;18.40;99.90
22299;DHT22;11317;51.072;17.036;2022-09-14T17:58:33;18.40;99.90
22299;DHT22;11317;51.072;17.036;2022-09-14T18:01:09;18.30;99.90
22299;DHT22;11317;51.072;17.036;2022-09-14T18:03:38;18.40;99.90
22299;DHT22;11317;51.072;17.036;2022-09-14T18:06:07;18.40;99.90
22299;DHT22;11317;51.072;17.036;2022-09-14T18:08:33;18.30;99.90
22299;DHT22;11317;51.072;17.036;2022-09-14T18:11:08;18.30;99.90
22299;DHT22;11317;51.072;17.036;2022-09-14T18:13:34;18.30;99.90
22299;DHT22;11317;51.072;17.036;2022-09-14T18:16:00;18.30;99.90
22299;DHT22;11317;51.072;17.036;2022-09-14T18:18:26;18.30;99.90
22299;DHT22;11317;51.072;17.036;2022-09-14T18:20:51;18.30;99.90
22299;DHT22;11317;51.072;17.036;2022-09-14T18:25:44;18.40;99.90
22299;DHT22;11317;51.072;17.036;2022-09-14T18:28:11;18.30;99.90
22299;DHT22;11317;51.072;17.036;2022-09-14T18:30:42;18.30;99.90
22299;DHT22;11317;51.072;17.036;2022-09-14T18:33:09;18.20;99.90
22299;DHT22;11317;51.072;17.036;2022-09-14T18:35:36;18.30;99.90
22299;DHT22;11317;51.072;17.036;2022-09-14T18:38:03;18.10;99.90
22299;DHT22;11317;51.072;17.036;2022-09-14T18:40:32;18.10;99.90
22299;DHT22;11317;51.072;17.036;2022-09-14T18:42:58;18.00;99.90
22299;DHT22;11317;51.072;17.036;2022-09-14T18:45:23;18.00;99.90
22299;DHT22;11317;51.072;17.036;2022-09-14T18:47:49;18.10;99.90
22299;DHT22;11317;51.072;17.036;2022-09-14T18:50:15;18.10;99.90
22299;DHT22;11317;51.072;17.036;2022-09-14T18:52:41;18.20;99.90
22299;DHT22;11317;51.072;17.036;2022-09-14T18:55:06;18.20;99.90
22299;DHT22;11317;51.072;17.036;2022-09-14T18:57:33;18.20;99.90
22299;DHT22;11317;51.072;17.036;2022-09-14T18:59:59;18.10;99.90
22299;DHT22;11317;51.072;17.036;2022-09-14T19:02:24;18.20;99.90
22299;DHT22;11317;51.072;17.036;2022-09-14T19:04:52;18.80;99.90
22299;DHT22;11317;51.072;17.036;2022-09-14T19:07:22;18.20;99.90
22299;DHT22;11317;51.072;17.036;2022-09-14T19:09:48;18.20;99.90
22299;DHT22;11317;51.072;17.036;2022-09-14T19:12:15;18.20;99.90
22299;DHT22;11317;51.072;17.036;2022-09-14T19:14:40;18.30;99.90
22299;DHT22;11317;51.072;17.036;2022-09-14T19:17:06;18.20;99.90
22299;DHT22;11317;51.072;17.036;2022-09-14T19:19:32;18.20;99.90
22299;DHT22;11317;51.072;17.036;2022-09-14T19:21:59;18.20;99.90
22299;DHT22;11317;51.072;17.036;2022-09-14T19:24:25;18.20;99.90
22299;DHT22;11317;51.072;17.036;2022-09-14T19:26:55;18.20;99.90
22299;DHT22;11317;51.072;17.036;2022-09-14T19:29:23;18.20;99.90
22299;DHT22;11317;51.072;17.036;2022-09-14T19:31:49;18.10;99.90
22299;DHT22;11317;51.072;17.036;2022-09-14T19:34:20;18.10;99.90
22299;DHT22;11317;51.072;17.036;2022-09-14T19:36:47;18.10;99.90
22299;DHT22;11317;51.072;17.036;2022-09-14T19:39:13;18.20;99.90
22299;DHT22;11317;51.072;17.036;2022-09-14T19:41:39;18.10;99.90
22299;DHT22;11317;51.072;17.036;2022-09-14T19:44:05;18.10;99.90
22299;DHT22;11317;51.072;17.036;2022-09-14T19:46:32;18.10;99.90
22299;DHT22;11317;51.072;17.036;2022-09-14T19:48:58;18.10;99.90
22299;DHT22;11317;51.072;17.036;2022-09-14T19:51:25;18.00;99.90
22299;DHT22;11317;51.072;17.036;2022-09-14T19:53:53;18.00;99.90
22299;DHT22;11317;51.072;17.036;2022-09-14T19:56:21;18.00;99.90
22299;DHT22;11317;51.072;17.036;2022-09-14T19:58:53;18.00;99.90
22299;DHT22;11317;51.072;17.036;2022-09-14T20:01:22;18.00;99.90
22299;DHT22;11317;51.072;17.036;2022-09-14T20:03:48;18.00;99.90
22299;DHT22;11317;51.072;17.036;2022-09-14T20:06:21;18.00;99.90
22299;DHT22;11317;51.072;17.036;2022-09-14T20:08:59;18.00;99.90
22299;DHT22;11317;51.072;17.036;2022-09-14T20:11:26;18.00;99.90
22299;DHT22;11317;51.072;17.036;2022-09-14T20:13:54;18.00;99.90
22299;DHT22;11317;51.072;17.036;2022-09-14T20:16:25;18.00;99.90